createdAt,value
2017-01-12T00:00:00.052Z,992.22
2017-01-12T00:01:09.769Z,992.42
2017-01-12T00:02:19.558Z,992.26
2017-01-12T00:03:29.279Z,992.2
2017-01-12T00:04:38.996Z,992.3
2017-01-12T00:05:49.149Z,992.34
2017-01-12T00:06:58.426Z,992.27
2017-01-12T00:08:07.771Z,992.19
2017-01-12T00:09:17.932Z,992.32
2017-01-12T00:10:28.101Z,992.31
2017-01-12T00:11:37.386Z,992.24
2017-01-12T00:12:47.571Z,992.24
2017-01-12T00:13:56.912Z,992.23
2017-01-12T00:15:07.069Z,992.29
2017-01-12T00:16:16.790Z,992.36
2017-01-12T00:17:26.515Z,992.26
2017-01-12T00:18:35.800Z,992.29
2017-01-12T00:19:46.004Z,992.28
2017-01-12T00:20:55.281Z,992.22
2017-01-12T00:22:05.023Z,992.37
2017-01-12T00:23:15.175Z,992.38
2017-01-12T00:24:25.328Z,992.52
2017-01-12T00:25:34.661Z,992.35
2017-01-12T00:26:44.390Z,992.38
2017-01-12T00:27:54.543Z,992.36
2017-01-12T00:29:04.696Z,992.5
2017-01-12T00:30:14.857Z,992.45
2017-01-12T00:31:24.190Z,992.4
2017-01-12T00:32:33.927Z,992.49
2017-01-12T00:33:44.088Z,992.54
2017-01-12T00:34:53.373Z,992.59
2017-01-12T00:36:02.658Z,992.58
2017-01-12T00:37:12.423Z,992.57
2017-01-12T00:38:22.580Z,992.69
2017-01-12T00:39:32.293Z,992.61
2017-01-12T00:40:42.019Z,992.52
2017-01-12T00:41:51.303Z,992.64
2017-01-12T00:43:01.068Z,992.6
2017-01-12T00:44:10.781Z,992.63
2017-01-12T00:45:20.943Z,992.59
2017-01-12T00:46:30.219Z,992.64
2017-01-12T00:47:39.944Z,992.65
2017-01-12T00:48:49.282Z,992.69
2017-01-12T00:49:58.567Z,992.57
2017-01-12T00:51:08.732Z,992.64
2017-01-12T00:52:18.457Z,992.65
2017-01-12T00:53:28.178Z,992.64
2017-01-12T00:54:37.949Z,992.65
2017-01-12T00:55:47.232Z,992.74
2017-01-12T00:56:56.965Z,992.55
2017-01-12T00:58:07.122Z,992.55
2017-01-12T00:59:17.280Z,992.55
2017-01-12T01:00:27.053Z,992.56
2017-01-12T01:01:36.342Z,992.57
2017-01-12T01:02:46.503Z,992.77
2017-01-12T01:03:56.228Z,992.69
2017-01-12T01:05:05.513Z,992.7
2017-01-12T01:06:15.462Z,992.81
2017-01-12T01:07:24.771Z,992.65
2017-01-12T01:08:35.368Z,992.67
2017-01-12T01:09:45.094Z,992.73
2017-01-12T01:10:54.375Z,992.73
2017-01-12T01:12:05.032Z,992.73
2017-01-12T01:13:14.313Z,992.7
2017-01-12T01:14:24.034Z,992.67
2017-01-12T01:15:34.191Z,992.76
2017-01-12T01:16:43.482Z,992.73
2017-01-12T01:17:52.818Z,992.73
2017-01-12T01:19:02.103Z,992.75
2017-01-12T01:20:11.384Z,992.84
2017-01-12T01:21:21.105Z,992.91
2017-01-12T01:22:31.714Z,992.93
2017-01-12T01:23:41.488Z,992.8
2017-01-12T01:24:51.209Z,992.9
2017-01-12T01:26:01.404Z,992.75
2017-01-12T01:27:10.691Z,992.79
2017-01-12T01:28:19.980Z,992.8
2017-01-12T01:29:29.329Z,992.78
2017-01-12T01:30:39.047Z,992.9
2017-01-12T01:31:48.767Z,993
2017-01-12T01:32:59.369Z,993.01
2017-01-12T01:34:08.646Z,992.98
2017-01-12T01:35:18.419Z,993.07
2017-01-12T01:36:28.576Z,993.06
2017-01-12T01:37:37.861Z,993.06
2017-01-12T01:38:48.031Z,993.05
2017-01-12T01:39:57.768Z,993.11
2017-01-12T01:41:07.124Z,993.09
2017-01-12T01:42:17.286Z,993.13
2017-01-12T01:43:27.015Z,993.12
2017-01-12T01:44:36.733Z,993.13
2017-01-12T01:45:47.334Z,993.22
2017-01-12T01:46:57.547Z,993.26
2017-01-12T01:48:07.280Z,993.21
2017-01-12T01:49:17.434Z,993.3
2017-01-12T01:50:27.155Z,993.17
2017-01-12T01:51:36.885Z,993.3
2017-01-12T01:52:46.238Z,993.29
2017-01-12T01:53:55.959Z,993.3
2017-01-12T01:55:06.553Z,993.27
2017-01-12T01:56:16.726Z,993.2
2017-01-12T01:57:26.455Z,993.21
2017-01-12T01:58:35.781Z,993.3
2017-01-12T01:59:45.506Z,993.26
2017-01-12T02:00:55.231Z,993.24
2017-01-12T02:02:04.553Z,993.23
2017-01-12T02:03:13.834Z,993.23
2017-01-12T02:04:23.173Z,993.41
2017-01-12T02:05:33.356Z,993.38
2017-01-12T02:06:43.081Z,993.36
2017-01-12T02:07:52.807Z,993.38
2017-01-12T02:09:02.529Z,993.32
2017-01-12T02:10:11.861Z,993.42
2017-01-12T02:11:21.583Z,993.4
2017-01-12T02:12:31.300Z,993.43
2017-01-12T02:13:41.017Z,993.43
2017-01-12T02:14:50.735Z,993.35
2017-01-12T02:16:00.508Z,993.55
2017-01-12T02:17:10.665Z,993.41
2017-01-12T02:18:19.951Z,993.4
2017-01-12T02:19:29.240Z,993.39
2017-01-12T02:20:39.405Z,993.48
2017-01-12T02:21:49.182Z,993.45
2017-01-12T02:22:58.907Z,993.37
2017-01-12T02:24:09.261Z,993.59
2017-01-12T02:25:19.426Z,993.46
2017-01-12T02:26:29.147Z,993.4
2017-01-12T02:27:39.377Z,993.48
2017-01-12T02:28:49.134Z,993.33
2017-01-12T02:29:58.859Z,993.37
2017-01-12T02:31:08.588Z,993.39
2017-01-12T02:32:18.317Z,993.25
2017-01-12T02:33:28.104Z,993.42
2017-01-12T02:34:38.740Z,993.33
2017-01-12T02:35:49.349Z,993.39
2017-01-12T02:36:59.519Z,993.3
2017-01-12T02:38:09.244Z,993.37
2017-01-12T02:39:19.169Z,993.42
2017-01-12T02:40:28.450Z,993.31
2017-01-12T02:41:38.607Z,993.3
2017-01-12T02:42:48.797Z,993.37
2017-01-12T02:43:58.518Z,993.36
2017-01-12T02:45:07.859Z,993.41
2017-01-12T02:46:17.149Z,993.27
2017-01-12T02:47:26.866Z,993.37
2017-01-12T02:48:36.147Z,993.39
2017-01-12T02:49:45.432Z,993.38
2017-01-12T02:50:55.205Z,993.33
2017-01-12T02:52:05.363Z,993.34
2017-01-12T02:53:15.524Z,993.29
2017-01-12T02:54:25.689Z,993.43
2017-01-12T02:55:34.999Z,993.37
2017-01-12T02:56:45.228Z,993.37
2017-01-12T02:57:55.393Z,993.38
2017-01-12T02:59:05.555Z,993.4
2017-01-12T03:00:15.715Z,993.4
2017-01-12T03:01:25.436Z,993.47
2017-01-12T03:02:35.642Z,993.3
2017-01-12T03:03:44.923Z,993.46
2017-01-12T03:04:55.512Z,993.47
2017-01-12T03:06:05.677Z,993.45
2017-01-12T03:07:16.279Z,993.41
2017-01-12T03:08:26.488Z,993.45
2017-01-12T03:09:36.219Z,993.44
2017-01-12T03:10:45.942Z,993.45
2017-01-12T03:11:55.664Z,993.49
2017-01-12T03:13:04.949Z,993.39
2017-01-12T03:14:14.722Z,993.53
2017-01-12T03:15:24.447Z,993.53
2017-01-12T03:16:33.732Z,993.55
2017-01-12T03:17:43.013Z,993.47
2017-01-12T03:18:52.295Z,993.42
2017-01-12T03:20:02.508Z,993.53
2017-01-12T03:21:11.790Z,993.42
2017-01-12T03:22:21.066Z,993.57
2017-01-12T03:23:30.347Z,993.57
2017-01-12T03:24:40.065Z,993.56
2017-01-12T03:25:49.406Z,993.39
2017-01-12T03:26:59.571Z,993.5
2017-01-12T03:28:08.856Z,993.48
2017-01-12T03:29:19.005Z,993.55
2017-01-12T03:30:28.727Z,993.52
2017-01-12T03:31:38.504Z,993.57
2017-01-12T03:32:48.657Z,993.47
2017-01-12T03:33:58.382Z,993.55
2017-01-12T03:35:08.544Z,993.59
2017-01-12T03:36:18.269Z,993.57
2017-01-12T03:37:28.922Z,993.6
2017-01-12T03:38:38.647Z,993.6
2017-01-12T03:39:47.933Z,993.65
2017-01-12T03:40:58.086Z,993.68
2017-01-12T03:42:07.370Z,993.6
2017-01-12T03:43:17.140Z,993.75
2017-01-12T03:44:26.429Z,993.61
2017-01-12T03:45:36.595Z,993.69
2017-01-12T03:46:46.752Z,993.75
2017-01-12T03:47:56.473Z,993.67
2017-01-12T03:49:06.242Z,993.7
2017-01-12T03:50:15.963Z,993.67
2017-01-12T03:51:25.692Z,993.61
2017-01-12T03:52:35.418Z,993.63
2017-01-12T03:53:45.143Z,993.62
2017-01-12T03:54:54.916Z,993.61
2017-01-12T03:56:05.077Z,993.58
2017-01-12T03:57:14.378Z,993.62
2017-01-12T03:58:24.538Z,993.66
2017-01-12T03:59:34.697Z,993.59
2017-01-12T04:00:44.030Z,993.72
2017-01-12T04:01:53.307Z,993.67
2017-01-12T04:03:03.025Z,993.74
2017-01-12T04:04:12.750Z,993.64
2017-01-12T04:05:22.475Z,993.72
2017-01-12T04:06:32.245Z,993.66
2017-01-12T04:07:41.958Z,993.72
2017-01-12T04:08:51.247Z,993.7
2017-01-12T04:10:00.972Z,993.71
2017-01-12T04:11:12.014Z,993.7
2017-01-12T04:12:21.795Z,993.76
2017-01-12T04:13:31.076Z,993.79
2017-01-12T04:14:40.365Z,993.76
2017-01-12T04:15:50.091Z,993.71
2017-01-12T04:16:59.808Z,993.71
2017-01-12T04:18:09.141Z,993.82
2017-01-12T04:19:18.422Z,993.74
2017-01-12T04:20:27.708Z,993.93
2017-01-12T04:21:37.865Z,993.73
2017-01-12T04:22:48.030Z,993.86
2017-01-12T04:23:58.682Z,993.89
2017-01-12T04:25:07.965Z,993.89
2017-01-12T04:26:17.694Z,993.89
2017-01-12T04:27:26.983Z,993.87
2017-01-12T04:28:37.137Z,993.88
2017-01-12T04:29:46.905Z,993.91
2017-01-12T04:30:56.623Z,993.81
2017-01-12T04:32:05.908Z,993.92
2017-01-12T04:33:16.507Z,993.79
2017-01-12T04:34:26.231Z,993.81
2017-01-12T04:35:36.448Z,993.84
2017-01-12T04:36:45.729Z,993.84
2017-01-12T04:37:55.894Z,993.87
2017-01-12T04:39:06.052Z,993.92
2017-01-12T04:40:16.221Z,993.82
2017-01-12T04:41:25.558Z,993.88
2017-01-12T04:42:35.279Z,993.94
2017-01-12T04:43:44.568Z,993.92
2017-01-12T04:44:54.721Z,993.85
2017-01-12T04:46:04.002Z,993.91
2017-01-12T04:47:13.779Z,994
2017-01-12T04:48:23.936Z,993.87
2017-01-12T04:49:33.218Z,993.96
2017-01-12T04:50:43.811Z,993.88
2017-01-12T04:51:53.084Z,994.02
2017-01-12T04:53:02.865Z,994.06
2017-01-12T04:54:13.454Z,994.08
2017-01-12T04:55:23.180Z,994.07
2017-01-12T04:56:32.901Z,994.01
2017-01-12T04:57:42.621Z,993.97
2017-01-12T04:58:51.951Z,994.02
2017-01-12T05:00:01.248Z,994.05
2017-01-12T05:01:10.965Z,994.11
2017-01-12T05:02:20.250Z,994.04
2017-01-12T05:03:29.991Z,993.96
2017-01-12T05:04:40.356Z,994.02
2017-01-12T05:05:49.673Z,994.09
2017-01-12T05:06:59.387Z,994.11
2017-01-12T05:08:09.104Z,994.12
2017-01-12T05:09:18.389Z,994.09
2017-01-12T05:10:28.162Z,994.12
2017-01-12T05:11:38.327Z,994.08
2017-01-12T05:12:48.496Z,994.09
2017-01-12T05:13:58.218Z,994.13
2017-01-12T05:15:08.375Z,994.15
2017-01-12T05:16:18.148Z,994.14
2017-01-12T05:17:27.433Z,994.11
2017-01-12T05:18:36.718Z,994.13
2017-01-12T05:19:46.436Z,994.2
2017-01-12T05:20:56.161Z,994.13
2017-01-12T05:22:05.934Z,994.2
2017-01-12T05:23:15.659Z,994.12
2017-01-12T05:24:24.945Z,994.24
2017-01-12T05:25:34.666Z,994.14
2017-01-12T05:26:44.387Z,994.19
2017-01-12T05:27:53.724Z,994.2
2017-01-12T05:29:03.445Z,994.12
2017-01-12T05:30:12.730Z,994.2
2017-01-12T05:31:22.479Z,994.2
2017-01-12T05:32:31.765Z,994.23
2017-01-12T05:33:41.534Z,994.16
2017-01-12T05:34:51.695Z,994.26
2017-01-12T05:36:02.300Z,994.28
2017-01-12T05:37:12.898Z,994.37
2017-01-12T05:38:22.626Z,994.34
2017-01-12T05:39:32.408Z,994.37
2017-01-12T05:40:42.133Z,994.34
2017-01-12T05:41:52.298Z,994.37
2017-01-12T05:43:02.463Z,994.5
2017-01-12T05:44:11.740Z,994.33
2017-01-12T05:45:21.950Z,994.41
2017-01-12T05:46:31.240Z,994.47
2017-01-12T05:47:40.524Z,994.44
2017-01-12T05:48:50.245Z,994.38
2017-01-12T05:49:59.978Z,994.42
2017-01-12T05:51:09.335Z,994.43
2017-01-12T05:52:18.628Z,994.44
2017-01-12T05:53:28.789Z,994.41
2017-01-12T05:54:38.071Z,994.43
2017-01-12T05:55:47.788Z,994.46
2017-01-12T05:56:57.121Z,994.41
2017-01-12T05:58:06.415Z,994.36
2017-01-12T05:59:16.583Z,994.3
2017-01-12T06:00:25.864Z,994.21
2017-01-12T06:01:35.585Z,994.19
2017-01-12T06:02:44.918Z,994.15
2017-01-12T06:03:55.520Z,994.3
2017-01-12T06:05:05.240Z,994.19
2017-01-12T06:06:14.529Z,994.23
2017-01-12T06:07:24.255Z,994.2
2017-01-12T06:08:34.028Z,994.19
2017-01-12T06:09:43.745Z,994.25
2017-01-12T06:10:53.026Z,994.27
2017-01-12T06:12:02.748Z,994.26
2017-01-12T06:13:12.908Z,994.25
2017-01-12T06:14:22.682Z,994.22
2017-01-12T06:15:32.407Z,994.15
2017-01-12T06:16:41.688Z,994.19
2017-01-12T06:17:50.969Z,994.21
2017-01-12T06:19:00.707Z,994.24
2017-01-12T06:20:10.507Z,994.15
2017-01-12T06:21:20.233Z,994.27
2017-01-12T06:22:29.946Z,994.17
2017-01-12T06:23:39.667Z,994.25
2017-01-12T06:24:49.816Z,994.24
2017-01-12T06:25:59.149Z,994.21
2017-01-12T06:27:09.747Z,994.27
2017-01-12T06:28:19.027Z,994.25
2017-01-12T06:29:29.629Z,994.22
2017-01-12T06:30:38.914Z,994.24
2017-01-12T06:31:49.128Z,994.13
2017-01-12T06:32:59.289Z,994.2
2017-01-12T06:34:09.456Z,994.21
2017-01-12T06:35:18.739Z,994.27
2017-01-12T06:36:28.028Z,994.22
2017-01-12T06:37:37.397Z,994.21
2017-01-12T06:38:47.555Z,994.23
2017-01-12T06:39:57.271Z,994.18
2017-01-12T06:41:07.008Z,994.16
2017-01-12T06:42:17.166Z,994.25
2017-01-12T06:43:26.938Z,994.19
2017-01-12T06:44:36.223Z,994.17
2017-01-12T06:45:45.936Z,994.18
2017-01-12T06:46:55.665Z,994.2
2017-01-12T06:48:05.390Z,994.13
2017-01-12T06:49:15.615Z,994.15
2017-01-12T06:50:26.220Z,994.15
2017-01-12T06:51:35.957Z,994.22
2017-01-12T06:52:45.682Z,994.27
2017-01-12T06:53:54.971Z,994.33
2017-01-12T06:55:05.620Z,994.31
2017-01-12T06:56:15.341Z,994.27
2017-01-12T06:57:24.618Z,994.28
2017-01-12T06:58:33.899Z,994.29
2017-01-12T06:59:44.091Z,994.26
2017-01-12T07:00:53.893Z,994.25
2017-01-12T07:02:04.070Z,994.25
2017-01-12T07:03:14.227Z,994.16
2017-01-12T07:04:23.948Z,994.2
2017-01-12T07:05:33.697Z,994.21
2017-01-12T07:06:43.618Z,994.23
2017-01-12T07:07:53.335Z,994.2
2017-01-12T07:09:03.516Z,994.32
2017-01-12T07:10:13.237Z,994.25
2017-01-12T07:11:23.398Z,994.19
2017-01-12T07:12:33.167Z,994.18
2017-01-12T07:13:42.888Z,994.24
2017-01-12T07:14:52.173Z,994.27
2017-01-12T07:16:01.887Z,994.28
2017-01-12T07:17:11.612Z,994.28
2017-01-12T07:18:21.381Z,994.29
2017-01-12T07:19:31.979Z,994.31
2017-01-12T07:20:42.596Z,994.22
2017-01-12T07:21:53.198Z,994.32
2017-01-12T07:23:03.382Z,994.26
2017-01-12T07:24:13.148Z,994.26
2017-01-12T07:25:22.432Z,994.26
2017-01-12T07:26:33.026Z,994.26
2017-01-12T07:27:42.771Z,994.35
2017-01-12T07:28:53.381Z,994.31
2017-01-12T07:30:02.710Z,994.36
2017-01-12T07:31:11.991Z,994.36
2017-01-12T07:32:21.272Z,994.45
2017-01-12T07:33:30.553Z,994.4
2017-01-12T07:34:40.715Z,994.49
2017-01-12T07:35:50.484Z,994.4
2017-01-12T07:36:59.765Z,994.43
2017-01-12T07:38:09.482Z,994.48
2017-01-12T07:39:18.759Z,994.44
2017-01-12T07:40:28.037Z,994.36
2017-01-12T07:41:37.806Z,994.36
2017-01-12T07:42:47.087Z,994.3
2017-01-12T07:43:56.816Z,994.4
2017-01-12T07:45:06.098Z,994.4
2017-01-12T07:46:16.255Z,994.41
2017-01-12T07:47:26.469Z,994.42
2017-01-12T07:48:36.625Z,994.46
2017-01-12T07:49:46.778Z,994.49
2017-01-12T07:50:56.932Z,994.48
2017-01-12T07:52:06.653Z,994.47
2017-01-12T07:53:16.431Z,994.5
2017-01-12T07:54:27.027Z,994.5
2017-01-12T07:55:36.313Z,994.45
2017-01-12T07:56:46.470Z,994.45
2017-01-12T07:57:56.195Z,994.49
2017-01-12T07:59:05.529Z,994.56
2017-01-12T08:00:15.690Z,994.62
2017-01-12T08:01:26.296Z,994.46
2017-01-12T08:02:36.020Z,994.57
2017-01-12T08:03:46.185Z,994.57
2017-01-12T08:04:55.955Z,994.56
2017-01-12T08:06:05.672Z,994.63
2017-01-12T08:07:14.953Z,994.64
2017-01-12T08:08:24.675Z,994.61
2017-01-12T08:09:34.404Z,994.64
2017-01-12T08:10:44.609Z,994.68
2017-01-12T08:11:55.202Z,994.76
2017-01-12T08:13:04.931Z,994.69
2017-01-12T08:14:14.216Z,994.71
2017-01-12T08:15:23.941Z,994.67
2017-01-12T08:16:34.387Z,994.51
2017-01-12T08:17:43.680Z,994.71
2017-01-12T08:18:53.409Z,994.95
2017-01-12T08:20:03.687Z,994.63
2017-01-12T08:21:13.415Z,994.82
2017-01-12T08:22:23.633Z,994.76
2017-01-12T08:23:39.554Z,994.6
2017-01-12T08:24:49.719Z,994.8
2017-01-12T08:26:00.020Z,994.8
2017-01-12T08:27:12.842Z,994.72
2017-01-12T08:28:26.589Z,994.82
2017-01-12T08:29:36.753Z,994.77
2017-01-12T08:30:47.074Z,994.84
2017-01-12T08:31:58.919Z,994.92
2017-01-12T08:33:09.129Z,994.81
2017-01-12T08:34:19.462Z,994.94
2017-01-12T08:35:30.851Z,994.89
2017-01-12T08:36:40.356Z,994.83
2017-01-12T08:37:49.937Z,994.92
2017-01-12T08:39:00.579Z,994.88
2017-01-12T08:40:10.968Z,994.96
2017-01-12T08:41:22.441Z,994.89
2017-01-12T08:42:32.190Z,994.88
2017-01-12T08:43:42.131Z,995.04
2017-01-12T08:44:54.017Z,994.95
2017-01-12T08:46:03.746Z,994.89
2017-01-12T08:47:14.542Z,994.95
2017-01-12T08:48:27.317Z,994.97
2017-01-12T08:49:37.034Z,994.99
2017-01-12T08:50:48.067Z,994.98
2017-01-12T08:51:59.146Z,995
2017-01-12T08:53:08.450Z,995.04
2017-01-12T08:54:18.175Z,994.99
2017-01-12T08:55:31.524Z,995.05
2017-01-12T08:56:40.862Z,995.09
2017-01-12T08:57:50.583Z,995.04
2017-01-12T08:59:00.180Z,995.09
2017-01-12T09:00:10.573Z,995
2017-01-12T09:01:23.154Z,994.92
2017-01-12T09:02:33.372Z,995.07
2017-01-12T09:03:42.649Z,995.06
2017-01-12T09:04:51.930Z,995.21
2017-01-12T09:06:01.660Z,994.96
2017-01-12T09:07:11.813Z,995.04
2017-01-12T09:08:21.582Z,995.1
2017-01-12T09:09:31.739Z,995.03
2017-01-12T09:10:41.016Z,995
2017-01-12T09:11:51.798Z,994.99
2017-01-12T09:13:04.031Z,995.13
2017-01-12T09:14:16.404Z,994.98
2017-01-12T09:15:26.561Z,995.1
2017-01-12T09:16:36.447Z,995.04
2017-01-12T09:17:48.856Z,995.05
2017-01-12T09:18:59.233Z,994.9
2017-01-12T09:20:10.746Z,995.04
2017-01-12T09:21:20.472Z,995.07
2017-01-12T09:22:30.441Z,995.02
2017-01-12T09:23:43.850Z,995.03
2017-01-12T09:24:54.015Z,995.08
2017-01-12T09:26:03.784Z,995.08
2017-01-12T09:27:14.937Z,995.14
2017-01-12T09:28:24.907Z,995.1
2017-01-12T09:29:35.276Z,995.07
2017-01-12T09:30:45.253Z,995.05
2017-01-12T09:31:55.899Z,995.09
2017-01-12T09:33:07.420Z,995.11
2017-01-12T09:34:17.157Z,995
2017-01-12T09:35:27.107Z,995
2017-01-12T09:36:39.392Z,994.94
2017-01-12T09:37:49.161Z,995.06
2017-01-12T09:38:59.002Z,995.17
2017-01-12T09:40:10.627Z,995.07
2017-01-12T09:41:20.592Z,995.13
2017-01-12T09:42:31.166Z,995.14
2017-01-12T09:43:40.787Z,995.15
2017-01-12T09:44:50.517Z,995.07
2017-01-12T09:45:59.801Z,995.09
2017-01-12T09:47:09.091Z,995.19
2017-01-12T09:48:20.043Z,995.29
2017-01-12T09:49:32.689Z,995.11
2017-01-12T09:50:42.855Z,995.11
2017-01-12T09:51:52.360Z,995.1
2017-01-12T09:53:03.241Z,995.1
2017-01-12T09:54:13.327Z,995.04
2017-01-12T09:55:23.103Z,995.08
2017-01-12T09:56:32.644Z,995.03
2017-01-12T09:57:47.965Z,994.97
2017-01-12T09:58:57.255Z,995.03
2017-01-12T10:00:08.600Z,995.04
2017-01-12T10:01:20.517Z,995.1
2017-01-12T10:02:31.942Z,995.11
2017-01-12T10:03:42.116Z,995
2017-01-12T10:04:52.505Z,995.07
2017-01-12T10:06:04.346Z,994.93
2017-01-12T10:07:13.687Z,995.05
2017-01-12T10:08:23.676Z,994.98
2017-01-12T10:09:36.677Z,995.08
2017-01-12T10:10:46.868Z,995.01
2017-01-12T10:11:57.260Z,995.03
2017-01-12T10:13:09.137Z,994.95
2017-01-12T10:14:24.714Z,995
2017-01-12T10:15:34.008Z,994.84
2017-01-12T10:16:43.730Z,994.95
2017-01-12T10:17:54.331Z,994.98
2017-01-12T10:19:03.668Z,994.87
2017-01-12T10:20:13.409Z,994.88
2017-01-12T10:21:23.134Z,994.87
2017-01-12T10:22:32.415Z,994.94
2017-01-12T10:23:42.144Z,994.9
2017-01-12T10:24:52.365Z,994.89
2017-01-12T10:26:02.103Z,994.93
2017-01-12T10:27:11.391Z,994.84
2017-01-12T10:28:20.673Z,994.87
2017-01-12T10:29:30.402Z,994.77
2017-01-12T10:30:40.355Z,994.86
2017-01-12T10:31:49.640Z,994.83
2017-01-12T10:32:58.925Z,994.73
2017-01-12T10:34:09.099Z,994.69
2017-01-12T10:35:18.828Z,994.74
2017-01-12T10:36:28.549Z,994.66
2017-01-12T10:37:38.284Z,994.64
2017-01-12T10:38:47.575Z,994.64
2017-01-12T10:39:58.516Z,994.64
2017-01-12T10:41:11.309Z,994.75
2017-01-12T10:42:24.370Z,994.63
2017-01-12T10:43:36.779Z,994.64
2017-01-12T10:44:49.740Z,994.56
2017-01-12T10:46:01.406Z,994.52
2017-01-12T10:47:13.219Z,994.53
2017-01-12T10:48:25.772Z,994.56
2017-01-12T10:49:35.513Z,994.61
2017-01-12T10:50:45.378Z,994.54
2017-01-12T10:51:58.856Z,994.55
2017-01-12T10:53:10.337Z,994.56
2017-01-12T10:54:19.626Z,994.6
2017-01-12T10:55:29.351Z,994.45
2017-01-12T10:56:39.080Z,994.5
2017-01-12T10:57:48.373Z,994.52
2017-01-12T10:58:57.706Z,994.55
2017-01-12T11:00:06.988Z,994.53
2017-01-12T11:01:17.608Z,994.5
2017-01-12T11:02:27.337Z,994.48
2017-01-12T11:03:37.066Z,994.54
2017-01-12T11:04:46.843Z,994.46
2017-01-12T11:05:57.020Z,994.49
2017-01-12T11:07:07.233Z,994.44
2017-01-12T11:08:16.582Z,994.46
2017-01-12T11:09:25.871Z,994.45
2017-01-12T11:10:35.209Z,994.36
2017-01-12T11:11:44.497Z,994.4
2017-01-12T11:12:53.790Z,994.37
2017-01-12T11:14:03.955Z,994.3
2017-01-12T11:15:13.684Z,994.34
2017-01-12T11:16:24.377Z,994.32
2017-01-12T11:17:33.674Z,994.32
2017-01-12T11:18:43.399Z,994.36
2017-01-12T11:19:53.568Z,994.28
2017-01-12T11:21:03.313Z,994.29
2017-01-12T11:22:13.530Z,994.29
2017-01-12T11:23:22.823Z,994.26
2017-01-12T11:24:32.987Z,994.32
2017-01-12T11:25:43.153Z,994.26
2017-01-12T11:26:52.873Z,994.18
2017-01-12T11:28:02.355Z,994.23
2017-01-12T11:29:12.519Z,994.24
2017-01-12T11:30:22.244Z,994.17
2017-01-12T11:31:31.969Z,994.24
2017-01-12T11:32:41.694Z,994.12
2017-01-12T11:33:51.039Z,994.11
2017-01-12T11:35:00.332Z,994.17
2017-01-12T11:36:09.625Z,994.19
2017-01-12T11:37:18.918Z,994.2
2017-01-12T11:38:29.098Z,994.14
2017-01-12T11:39:39.312Z,994.08
2017-01-12T11:40:49.057Z,994.06
2017-01-12T11:41:59.658Z,994.05
2017-01-12T11:43:09.827Z,994.13
2017-01-12T11:44:19.552Z,994.01
2017-01-12T11:45:29.769Z,994.01
2017-01-12T11:46:40.394Z,994.04
2017-01-12T11:47:49.687Z,994.09
2017-01-12T11:48:59.413Z,993.99
2017-01-12T11:50:09.585Z,994.02
2017-01-12T11:51:19.362Z,993.91
2017-01-12T11:52:29.091Z,993.96
2017-01-12T11:53:38.384Z,993.9
2017-01-12T11:54:48.117Z,993.86
2017-01-12T11:55:57.857Z,993.96
2017-01-12T11:57:08.582Z,993.88
2017-01-12T11:58:18.372Z,993.92
2017-01-12T11:59:28.988Z,993.93
2017-01-12T12:00:40.045Z,993.96
2017-01-12T12:01:51.082Z,993.88
2017-01-12T12:03:00.430Z,993.86
2017-01-12T12:04:10.599Z,993.91
2017-01-12T12:05:19.889Z,993.64
2017-01-12T12:06:29.181Z,993.83
2017-01-12T12:07:38.906Z,993.84
2017-01-12T12:08:48.687Z,993.79
2017-01-12T12:09:57.980Z,993.86
2017-01-12T12:11:08.621Z,993.81
2017-01-12T12:12:17.918Z,993.77
2017-01-12T12:13:28.515Z,993.8
2017-01-12T12:14:37.848Z,993.8
2017-01-12T12:15:48.017Z,993.87
2017-01-12T12:16:58.198Z,993.87
2017-01-12T12:18:09.459Z,993.8
2017-01-12T12:19:19.256Z,993.85
2017-01-12T12:20:28.608Z,993.85
2017-01-12T12:21:38.102Z,993.82
2017-01-12T12:22:48.805Z,993.84
2017-01-12T12:23:58.536Z,993.83
2017-01-12T12:25:09.082Z,993.84
2017-01-12T12:26:19.155Z,993.73
2017-01-12T12:27:29.343Z,993.79
2017-01-12T12:28:38.652Z,993.69
2017-01-12T12:29:49.317Z,993.71
2017-01-12T12:31:00.545Z,993.64
2017-01-12T12:32:10.860Z,993.65
2017-01-12T12:33:20.581Z,993.68
2017-01-12T12:34:30.314Z,993.73
2017-01-12T12:35:40.040Z,993.69
2017-01-12T12:36:49.984Z,993.6
2017-01-12T12:37:59.762Z,993.7
2017-01-12T12:39:09.739Z,993.58
2017-01-12T12:40:19.448Z,993.56
2017-01-12T12:41:30.290Z,993.65
2017-01-12T12:42:40.455Z,993.61
2017-01-12T12:43:50.020Z,993.56
2017-01-12T12:44:59.741Z,993.57
2017-01-12T12:46:09.031Z,993.56
2017-01-12T12:47:18.320Z,993.5
2017-01-12T12:48:28.493Z,993.57
2017-01-12T12:49:39.070Z,993.56
2017-01-12T12:50:49.236Z,993.61
2017-01-12T12:51:59.401Z,993.53
2017-01-12T12:53:09.570Z,993.64
2017-01-12T12:54:19.279Z,993.58
2017-01-12T12:55:28.620Z,993.56
2017-01-12T12:56:37.917Z,993.63
2017-01-12T12:57:47.999Z,993.62
2017-01-12T12:58:57.720Z,993.51
2017-01-12T13:00:07.448Z,993.6
2017-01-12T13:01:17.654Z,993.51
2017-01-12T13:02:26.951Z,993.49
2017-01-12T13:03:36.240Z,993.48
2017-01-12T13:04:46.181Z,993.52
2017-01-12T13:05:56.331Z,993.47
2017-01-12T13:07:06.116Z,993.38
2017-01-12T13:08:15.849Z,993.4
2017-01-12T13:09:25.139Z,993.37
2017-01-12T13:10:35.084Z,993.34
2017-01-12T13:11:46.090Z,993.43
2017-01-12T13:12:56.383Z,993.39
2017-01-12T13:14:05.672Z,993.37
2017-01-12T13:15:16.342Z,993.42
2017-01-12T13:16:28.500Z,993.33
2017-01-12T13:17:39.084Z,993.35
2017-01-12T13:18:50.002Z,993.28
2017-01-12T13:19:59.731Z,993.32
2017-01-12T13:21:09.016Z,993.32
2017-01-12T13:22:18.313Z,993.21
2017-01-12T13:23:28.067Z,993.24
2017-01-12T13:24:38.160Z,993.15
2017-01-12T13:25:48.325Z,993.19
2017-01-12T13:26:57.622Z,993.18
2017-01-12T13:28:07.988Z,993.14
2017-01-12T13:29:18.600Z,993.14
2017-01-12T13:30:28.821Z,993.18
2017-01-12T13:31:38.115Z,993.12
2017-01-12T13:32:47.852Z,993.07
2017-01-12T13:33:57.146Z,993.02
2017-01-12T13:35:06.466Z,993.01
2017-01-12T13:36:16.668Z,992.97
2017-01-12T13:37:27.157Z,992.94
2017-01-12T13:38:36.758Z,992.9
2017-01-12T13:39:46.676Z,992.92
2017-01-12T13:40:56.849Z,992.89
2017-01-12T13:42:07.286Z,992.9
2017-01-12T13:43:17.019Z,992.91
2017-01-12T13:44:26.312Z,992.92
2017-01-12T13:45:36.761Z,992.84
2017-01-12T13:46:47.299Z,992.85
2017-01-12T13:47:57.040Z,992.83
2017-01-12T13:49:06.513Z,992.96
2017-01-12T13:50:15.798Z,992.87
2017-01-12T13:51:25.087Z,992.83
2017-01-12T13:52:34.816Z,992.77
2017-01-12T13:53:45.734Z,992.73
2017-01-12T13:54:55.559Z,992.74
2017-01-12T13:56:06.768Z,992.69
2017-01-12T13:57:17.085Z,992.74
2017-01-12T13:58:26.678Z,992.72
2017-01-12T13:59:36.755Z,992.62
2017-01-12T14:00:46.485Z,992.6
2017-01-12T14:01:56.690Z,992.67
2017-01-12T14:03:07.251Z,992.66
2017-01-12T14:04:17.844Z,992.63
2017-01-12T14:05:30.369Z,992.6
2017-01-12T14:06:40.755Z,992.64
2017-01-12T14:07:50.043Z,992.54
2017-01-12T14:08:59.781Z,992.6
2017-01-12T14:10:09.514Z,992.6
2017-01-12T14:11:19.279Z,992.53
2017-01-12T14:12:30.228Z,992.47
2017-01-12T14:13:39.853Z,992.52
2017-01-12T14:14:50.899Z,992.5
2017-01-12T14:16:01.376Z,992.49
2017-01-12T14:17:11.705Z,992.49
2017-01-12T14:18:21.311Z,992.48
2017-01-12T14:19:31.037Z,992.47
2017-01-12T14:20:40.650Z,992.5
2017-01-12T14:21:51.227Z,992.44
2017-01-12T14:23:01.665Z,992.46
2017-01-12T14:24:11.054Z,992.48
2017-01-12T14:25:21.207Z,992.41
2017-01-12T14:26:31.581Z,992.41
2017-01-12T14:27:41.778Z,992.41
2017-01-12T14:28:51.275Z,992.36
2017-01-12T14:30:00.577Z,992.31
2017-01-12T14:31:10.742Z,992.25
2017-01-12T14:32:20.031Z,992.33
2017-01-12T14:33:29.760Z,992.27
2017-01-12T14:34:39.538Z,992.28
2017-01-12T14:35:48.855Z,992.23
2017-01-12T14:36:59.113Z,992.2